createdAt,value
2017-12-06T00:01:06.746Z,100208.76
2017-12-06T00:03:33.898Z,100209.30
2017-12-06T00:06:00.332Z,100209.48
2017-12-06T00:08:26.774Z,100201.89
2017-12-06T00:10:53.158Z,100202.45
2017-12-06T00:13:19.535Z,100207.33
2017-12-06T00:15:45.969Z,100203.92
2017-12-06T00:18:12.403Z,100192.17
2017-12-06T00:20:39.674Z,100204.93
2017-12-06T00:23:06.091Z,100210.58
2017-12-06T00:25:32.463Z,100211.00
2017-12-06T00:27:58.794Z,100205.30
2017-12-06T00:30:25.174Z,100205.18
2017-12-06T00:32:51.527Z,100203.75
2017-12-06T00:35:17.957Z,100204.47
2017-12-06T00:37:45.005Z,100207.95
2017-12-06T00:40:11.440Z,100198.86
2017-12-06T00:42:37.875Z,100200.84
2017-12-06T00:45:04.250Z,100206.00
2017-12-06T00:47:30.641Z,100212.72
2017-12-06T00:49:57.178Z,100192.52
2017-12-06T00:52:23.715Z,100200.09
2017-12-06T00:54:50.662Z,100202.14
2017-12-06T00:57:17.179Z,100202.03
2017-12-06T00:59:43.633Z,100204.50
2017-12-06T01:02:09.968Z,100198.23
2017-12-06T01:04:36.443Z,100193.10
2017-12-06T01:07:02.834Z,100191.84
2017-12-06T01:09:29.315Z,100179.92
2017-12-06T01:11:56.441Z,100183.02
2017-12-06T01:14:22.855Z,100189.68
2017-12-06T01:16:49.290Z,100185.42
2017-12-06T01:19:15.724Z,100186.13
2017-12-06T01:21:42.159Z,100185.53
2017-12-06T01:24:08.593Z,100181.88
2017-12-06T01:26:35.029Z,100180.23
2017-12-06T01:29:02.078Z,100185.61
2017-12-06T01:31:28.511Z,100183.66
2017-12-06T01:33:54.842Z,100178.87
2017-12-06T01:36:21.279Z,100181.69
2017-12-06T01:38:47.712Z,100181.49
2017-12-06T01:41:14.186Z,100176.70
2017-12-06T01:43:40.582Z,100166.70
2017-12-06T01:46:07.834Z,100172.30
2017-12-06T01:48:34.269Z,100174.01
2017-12-06T01:51:00.638Z,100159.57
2017-12-06T01:53:27.140Z,100163.55
2017-12-06T01:55:53.575Z,100156.31
2017-12-06T01:58:20.008Z,100156.31
2017-12-06T02:00:46.462Z,100157.25
2017-12-06T02:03:13.696Z,100155.19
2017-12-06T02:05:40.130Z,100153.05
2017-12-06T02:08:06.565Z,100149.80
2017-12-06T02:10:33.000Z,100153.05
2017-12-06T02:12:59.439Z,100151.79
2017-12-06T02:15:25.801Z,100139.97
2017-12-06T02:17:52.201Z,100137.48
2017-12-06T02:20:19.310Z,100140.20
2017-12-06T02:22:45.775Z,100136.34
2017-12-06T02:25:12.188Z,100135.14
2017-12-06T02:27:38.554Z,100133.75
2017-12-06T02:30:04.988Z,100135.99
2017-12-06T02:32:31.443Z,100141.16
2017-12-06T02:34:57.857Z,100131.94
2017-12-06T02:37:25.111Z,100134.52
2017-12-06T02:39:51.546Z,100121.11
2017-12-06T02:42:17.954Z,100136.45
2017-12-06T02:44:44.395Z,100136.27
2017-12-06T02:47:10.838Z,100136.39
2017-12-06T02:49:37.284Z,100132.79
2017-12-06T02:52:03.718Z,100135.48
2017-12-06T02:54:30.880Z,100131.84
2017-12-06T02:56:57.284Z,100101.00
2017-12-06T02:59:23.722Z,100130.45
2017-12-06T03:04:21.335Z,100122.43
2017-12-06T03:06:47.756Z,100120.09
2017-12-06T03:09:14.189Z,100121.75
2017-12-06T03:11:40.621Z,100118.98
2017-12-06T03:14:06.954Z,100117.66
2017-12-06T03:16:33.321Z,100127.98
2017-12-06T03:18:59.720Z,100121.56
2017-12-06T03:21:26.979Z,100126.59
2017-12-06T03:23:53.342Z,100130.78
2017-12-06T03:26:19.763Z,100128.55
2017-12-06T03:28:46.150Z,100124.87
2017-12-06T03:31:12.593Z,100122.83
2017-12-06T03:33:39.046Z,100123.85
2017-12-06T03:36:05.479Z,100112.64
2017-12-06T03:38:32.720Z,100119.71
2017-12-06T03:40:59.168Z,100111.64
2017-12-06T03:43:25.601Z,100112.98
2017-12-06T03:45:52.018Z,100101.58
2017-12-06T03:48:18.575Z,100109.12
2017-12-06T03:50:45.030Z,100103.52
2017-12-06T03:53:11.420Z,100096.06
2017-12-06T03:55:38.696Z,100111.88
2017-12-06T03:58:05.151Z,100113.92
2017-12-06T04:00:31.567Z,100108.00
2017-12-06T04:02:58.002Z,100108.11
2017-12-06T04:05:24.464Z,100111.59
2017-12-06T04:07:50.871Z,100117.94
2017-12-06T04:10:17.296Z,100113.13
2017-12-06T04:12:44.430Z,100110.79
2017-12-06T04:15:10.889Z,100109.45
2017-12-06T04:17:37.262Z,100112.01
2017-12-06T04:20:03.759Z,100113.88
2017-12-06T04:22:30.213Z,100119.06
2017-12-06T04:24:56.628Z,100112.83
2017-12-06T04:27:23.062Z,100116.40
2017-12-06T04:29:50.214Z,100111.80
2017-12-06T04:32:16.750Z,100106.00
2017-12-06T04:34:43.186Z,100111.20
2017-12-06T04:37:09.517Z,100113.75
2017-12-06T04:39:35.892Z,100114.27
2017-12-06T04:42:02.284Z,100115.61
2017-12-06T04:44:28.700Z,100108.65
2017-12-06T04:46:55.842Z,100104.98
2017-12-06T04:49:22.311Z,100113.75
2017-12-06T04:51:48.674Z,100106.52
2017-12-06T04:54:15.043Z,100106.41
2017-12-06T04:56:41.506Z,100115.88
2017-12-06T04:59:07.940Z,100119.17
2017-12-06T05:01:34.374Z,100113.85
2017-12-06T05:04:01.526Z,100113.77
2017-12-06T05:06:27.858Z,100110.17
2017-12-06T05:08:54.230Z,100114.98
2017-12-06T05:11:20.625Z,100115.17
2017-12-06T05:13:47.059Z,100120.80
2017-12-06T05:16:13.493Z,100123.45
2017-12-06T05:18:39.940Z,100121.52
2017-12-06T05:21:07.196Z,100124.36
2017-12-06T05:23:33.617Z,100129.27
2017-12-06T05:25:59.939Z,100128.75
2017-12-06T05:28:26.387Z,100122.54
2017-12-06T05:30:52.818Z,100125.39
2017-12-06T05:33:19.253Z,100125.81
2017-12-06T05:35:45.722Z,100126.22
2017-12-06T05:38:12.837Z,100118.84
2017-12-06T05:40:39.276Z,100127.64
2017-12-06T05:43:05.707Z,100115.68
2017-12-06T05:45:32.101Z,100118.87
2017-12-06T05:47:58.595Z,100117.11
2017-12-06T05:50:24.965Z,100112.41
2017-12-06T05:52:51.278Z,100118.23
2017-12-06T05:55:18.467Z,100114.55
2017-12-06T05:57:44.931Z,100116.50
2017-12-06T06:00:11.298Z,100112.30
2017-12-06T06:02:37.696Z,100120.99
2017-12-06T06:05:04.133Z,100114.73
2017-12-06T06:07:30.501Z,100124.63
2017-12-06T06:09:56.897Z,100122.27
2017-12-06T06:12:24.151Z,100122.54
2017-12-06T06:14:50.504Z,100122.95
2017-12-06T06:17:16.929Z,100123.84
2017-12-06T06:19:43.967Z,100127.52
2017-12-06T06:22:10.401Z,100124.37
2017-12-06T06:24:37.249Z,100124.07
2017-12-06T06:27:04.192Z,100121.09
2017-12-06T06:29:30.625Z,100132.82
2017-12-06T06:31:57.061Z,100135.69
2017-12-06T06:34:23.597Z,100134.48
2017-12-06T06:36:50.441Z,100132.11
2017-12-06T06:39:16.774Z,100145.77
2017-12-06T06:41:43.236Z,100138.48
2017-12-06T06:44:09.643Z,100149.11
2017-12-06T06:46:35.975Z,100149.42
2017-12-06T06:49:02.418Z,100128.66
2017-12-06T06:51:28.787Z,100135.86
2017-12-06T06:53:55.175Z,100148.22
2017-12-06T06:56:21.716Z,100145.59
2017-12-06T06:58:48.037Z,100142.61
2017-12-06T07:01:14.389Z,100146.93
2017-12-06T07:03:40.767Z,100140.84
2017-12-06T07:06:07.218Z,100145.45
2017-12-06T07:08:33.681Z,100149.14
2017-12-06T07:11:00.119Z,100140.72
2017-12-06T07:13:26.548Z,100142.65
2017-12-06T07:15:52.986Z,100146.22
2017-12-06T07:18:19.382Z,100138.75
2017-12-06T07:20:45.751Z,100134.64
2017-12-06T07:23:12.596Z,100129.78
2017-12-06T07:25:38.927Z,100129.46
2017-12-06T07:28:05.314Z,100128.33
2017-12-06T07:30:31.797Z,100122.80
2017-12-06T07:32:58.232Z,100118.97
2017-12-06T07:35:24.768Z,100084.81
2017-12-06T07:37:51.221Z,100115.02
2017-12-06T07:40:17.637Z,100119.10
2017-12-06T07:42:43.974Z,100118.59
2017-12-06T07:45:10.382Z,100124.78
2017-12-06T07:47:36.839Z,100115.52
2017-12-06T07:50:03.273Z,100113.84
2017-12-06T07:52:29.606Z,100117.46
2017-12-06T07:54:55.941Z,100124.56
2017-12-06T07:57:22.269Z,100119.96
2017-12-06T07:59:48.687Z,100086.94
2017-12-06T08:02:15.140Z,100111.83
2017-12-06T08:04:41.880Z,100111.61
2017-12-06T08:07:08.213Z,100111.15
2017-12-06T08:09:34.646Z,100108.83
2017-12-06T08:12:01.116Z,100119.27
2017-12-06T08:14:27.487Z,100096.98
2017-12-06T08:16:54.365Z,100118.89
2017-12-06T08:19:20.698Z,100119.94
2017-12-06T08:21:47.127Z,100115.53
2017-12-06T08:24:13.499Z,100107.62
2017-12-06T08:26:39.973Z,100120.86
2017-12-06T08:29:06.415Z,100128.17
2017-12-06T08:31:32.865Z,100110.70
2017-12-06T08:33:59.235Z,100112.76
2017-12-06T08:36:26.047Z,100112.73
2017-12-06T08:38:52.393Z,100118.45
2017-12-06T08:41:18.913Z,100118.99
2017-12-06T08:43:45.278Z,100123.71
2017-12-06T08:46:11.678Z,100116.70
2017-12-06T08:48:38.017Z,100117.03
2017-12-06T08:51:04.444Z,100114.89
2017-12-06T08:53:30.879Z,100114.55
2017-12-06T08:55:57.521Z,100104.13
2017-12-06T08:58:23.891Z,100094.16
2017-12-06T09:00:50.286Z,100085.91
2017-12-06T09:03:17.027Z,100080.99
2017-12-06T09:05:43.568Z,100085.06
2017-12-06T09:08:09.999Z,100084.75
2017-12-06T09:10:36.639Z,100076.75
2017-12-06T09:13:03.070Z,100073.33
2017-12-06T09:15:29.545Z,100067.63
2017-12-06T09:17:56.042Z,100076.69
2017-12-06T09:20:22.414Z,100069.47
2017-12-06T09:22:48.740Z,100060.11
2017-12-06T09:25:15.244Z,100053.31
2017-12-06T09:27:41.679Z,100062.11
2017-12-06T09:30:08.115Z,100031.15
2017-12-06T09:32:34.854Z,100053.11
2017-12-06T09:35:01.327Z,100061.81
2017-12-06T09:37:27.793Z,100043.38
2017-12-06T09:39:54.235Z,100053.52
2017-12-06T09:42:20.632Z,100071.50
2017-12-06T09:44:47.518Z,100046.73
2017-12-06T09:47:13.962Z,100067.92
2017-12-06T09:49:40.408Z,100042.95
2017-12-06T09:52:06.843Z,100039.98
2017-12-06T09:54:33.278Z,100056.34
2017-12-06T09:56:59.815Z,100051.53
2017-12-06T09:59:26.659Z,100044.18
2017-12-06T10:01:53.165Z,100042.61
2017-12-06T10:04:19.606Z,100035.40
2017-12-06T10:06:46.210Z,100030.70
2017-12-06T10:09:12.542Z,100026.38
2017-12-06T10:11:38.964Z,100030.48
2017-12-06T10:14:05.286Z,100026.75
2017-12-06T10:16:31.804Z,100031.27
2017-12-06T10:18:58.442Z,100045.03
2017-12-06T10:21:24.876Z,100025.69
2017-12-06T10:23:51.346Z,100027.30
2017-12-06T10:26:17.848Z,100040.91
2017-12-06T10:28:44.285Z,100014.70
2017-12-06T10:31:10.928Z,100034.36
2017-12-06T10:33:37.277Z,100034.95
2017-12-06T10:36:03.690Z,100003.58
2017-12-06T10:38:30.534Z,100014.74
2017-12-06T10:40:56.911Z,99994.53
2017-12-06T10:43:23.338Z,99998.63
2017-12-06T10:45:50.144Z,99994.07
2017-12-06T10:48:16.681Z,99991.57
2017-12-06T10:50:43.116Z,100011.50
2017-12-06T10:53:09.960Z,99983.84
2017-12-06T10:55:36.759Z,99991.70
2017-12-06T10:58:03.990Z,99985.97
2017-12-06T11:00:30.514Z,99982.78
2017-12-06T11:02:57.015Z,99998.60
2017-12-06T11:05:23.462Z,99979.81
2017-12-06T11:07:49.897Z,99982.09
2017-12-06T11:10:16.742Z,99993.75
2017-12-06T11:12:43.176Z,99986.77
2017-12-06T11:15:09.652Z,99991.53
2017-12-06T11:17:36.046Z,100000.83
2017-12-06T11:20:02.685Z,99995.47
2017-12-06T11:22:29.123Z,99988.54
2017-12-06T11:24:55.486Z,99989.72
2017-12-06T11:27:21.989Z,99993.45
2017-12-06T11:29:48.429Z,99985.19
2017-12-06T11:32:15.167Z,99983.94
2017-12-06T11:34:41.837Z,99982.01
2017-12-06T11:37:08.329Z,99993.22
2017-12-06T11:39:34.776Z,99976.93
2017-12-06T11:42:01.518Z,99981.09
2017-12-06T11:44:27.951Z,99982.66
2017-12-06T11:46:54.489Z,99972.54
2017-12-06T11:56:55.319Z,99979.27
2017-12-06T11:59:21.817Z,99976.03
2017-12-06T12:01:48.354Z,99975.38
2017-12-06T12:04:14.892Z,99964.34
2017-12-06T12:06:41.362Z,99983.80
2017-12-06T12:09:07.725Z,99996.84
2017-12-06T12:11:34.934Z,99968.03
2017-12-06T12:14:01.346Z,99981.52
2017-12-06T12:16:27.888Z,99989.92
2017-12-06T12:18:54.624Z,100009.86
2017-12-06T12:21:20.999Z,99985.77
2017-12-06T12:23:47.493Z,99985.57
2017-12-06T12:26:14.440Z,99988.03
2017-12-06T12:28:40.874Z,99986.45
2017-12-06T12:31:07.309Z,99993.27
2017-12-06T12:33:34.154Z,99999.55
2017-12-06T12:36:00.589Z,99986.22
2017-12-06T12:38:27.024Z,99978.37
2017-12-06T12:40:53.457Z,99979.57
2017-12-06T12:43:20.301Z,99979.07
2017-12-06T12:45:46.883Z,99963.66
2017-12-06T12:48:13.273Z,99972.28
2017-12-06T12:50:39.809Z,99965.05
2017-12-06T12:53:06.179Z,99957.56
2017-12-06T12:55:32.650Z,99965.46
2017-12-06T12:57:59.169Z,99968.13
2017-12-06T13:00:25.634Z,99953.14
2017-12-06T13:02:51.982Z,99947.14
2017-12-06T13:05:18.626Z,99951.48
2017-12-06T13:07:45.559Z,99957.52
2017-12-06T13:10:12.002Z,99953.66
2017-12-06T13:12:38.437Z,99932.14
2017-12-06T13:15:04.871Z,99964.25
2017-12-06T13:17:31.307Z,99946.27
2017-12-06T13:19:58.150Z,99947.84
2017-12-06T13:22:24.585Z,99944.00
2017-12-06T13:24:51.019Z,99948.25
2017-12-06T13:27:17.405Z,99949.96
2017-12-06T13:29:43.888Z,99946.13
2017-12-06T13:32:10.281Z,99955.63
2017-12-06T13:34:36.655Z,99936.62
2017-12-06T13:37:03.203Z,99961.49
2017-12-06T13:39:29.627Z,99958.44
2017-12-06T13:41:56.062Z,99953.84
2017-12-06T13:44:22.497Z,99963.24
2017-12-06T13:46:49.032Z,99966.11
2017-12-06T13:49:15.466Z,99967.98
2017-12-06T13:51:41.901Z,99968.35
2017-12-06T13:54:08.336Z,99969.38
2017-12-06T13:56:34.820Z,99971.08
2017-12-06T13:59:01.718Z,99973.05
2017-12-06T14:01:28.048Z,99969.14
2017-12-06T14:03:54.486Z,99976.64
2017-12-06T14:06:21.125Z,99976.52
2017-12-06T14:08:47.558Z,99979.16
2017-12-06T14:11:13.930Z,99973.33
2017-12-06T14:13:40.324Z,99972.50
2017-12-06T14:16:07.164Z,99952.18
2017-12-06T14:18:33.603Z,99977.34
2017-12-06T14:21:00.043Z,99980.74
2017-12-06T14:23:26.474Z,99988.22
2017-12-06T14:25:53.215Z,99989.92
2017-12-06T14:28:19.625Z,99985.27
2017-12-06T14:30:45.983Z,99966.39
2017-12-06T14:33:12.662Z,99972.34
2017-12-06T14:35:39.157Z,99969.02
2017-12-06T14:38:05.529Z,99967.31
2017-12-06T14:40:32.598Z,99966.83
2017-12-06T14:42:59.033Z,99964.80
2017-12-06T14:45:25.468Z,99973.13
2017-12-06T14:47:51.903Z,99972.95
2017-12-06T14:50:18.336Z,99975.80
2017-12-06T14:52:44.805Z,99980.05
2017-12-06T14:55:11.359Z,99981.41
2017-12-06T14:57:37.668Z,99984.01
2017-12-06T15:00:04.109Z,99982.80
2017-12-06T15:02:30.591Z,99982.98
2017-12-06T15:04:58.070Z,99983.98
2017-12-06T15:07:24.506Z,99964.44
2017-12-06T15:09:51.257Z,99968.16
2017-12-06T15:12:17.680Z,99969.05
2017-12-06T15:14:44.074Z,99975.19
2017-12-06T15:17:10.447Z,99969.91
2017-12-06T15:19:36.816Z,99969.55
2017-12-06T15:22:03.317Z,99977.92
2017-12-06T15:24:29.751Z,99952.55
2017-12-06T15:26:56.187Z,99979.48
2017-12-06T15:29:22.518Z,99977.13
2017-12-06T15:31:49.055Z,99984.45
2017-12-06T15:34:15.490Z,99988.54
2017-12-06T15:36:41.925Z,99985.47
2017-12-06T15:39:08.246Z,99987.86
2017-12-06T15:41:34.616Z,99975.38
2017-12-06T15:44:00.980Z,99979.51
2017-12-06T15:46:27.289Z,99976.38
2017-12-06T15:48:53.733Z,99976.39
2017-12-06T15:51:20.056Z,99986.83
2017-12-06T15:53:46.484Z,99973.03
2017-12-06T15:56:13.400Z,99972.84
2017-12-06T15:58:40.349Z,99974.44
2017-12-06T16:01:06.828Z,99969.04
2017-12-06T16:03:33.215Z,99963.94
2017-12-06T16:05:59.652Z,99966.02
2017-12-06T16:08:26.085Z,99966.03
2017-12-06T16:10:52.564Z,99965.90
2017-12-06T16:13:18.936Z,99969.39
2017-12-06T16:15:45.392Z,99961.33
2017-12-06T16:18:12.031Z,99967.70
2017-12-06T16:20:38.388Z,99954.52
2017-12-06T16:23:04.729Z,99961.66
2017-12-06T16:25:31.095Z,99957.82
2017-12-06T16:27:57.487Z,99962.87
2017-12-06T16:30:23.826Z,99962.09
2017-12-06T16:32:50.231Z,99963.92
2017-12-06T16:35:16.560Z,99961.90
2017-12-06T16:37:42.995Z,99964.85
2017-12-06T16:40:09.362Z,99970.99
2017-12-06T16:42:35.862Z,99973.56
2017-12-06T16:45:02.297Z,99971.83
2017-12-06T16:47:28.747Z,99972.01
2017-12-06T16:49:55.168Z,99970.02
2017-12-06T16:52:21.601Z,99988.14
2017-12-06T16:54:47.932Z,99985.17
2017-12-06T16:57:14.368Z,99984.88
2017-12-06T16:59:40.784Z,99992.36
2017-12-06T17:02:07.261Z,99994.13
2017-12-06T17:04:34.490Z,99993.87
2017-12-06T17:07:00.929Z,99979.95
2017-12-06T17:09:27.288Z,99985.73
2017-12-06T17:11:53.692Z,99989.70
2017-12-06T17:14:20.126Z,99996.83
2017-12-06T17:16:46.565Z,99999.17
2017-12-06T17:19:12.995Z,99999.92
2017-12-06T17:21:40.269Z,100002.30
2017-12-06T17:24:06.683Z,100000.55
2017-12-06T17:26:33.362Z,100008.62
2017-12-06T17:29:00.065Z,100008.72
2017-12-06T17:31:26.703Z,100013.83
2017-12-06T17:33:53.245Z,100011.27
2017-12-06T17:36:19.765Z,100004.69
2017-12-06T17:38:46.948Z,100003.16
2017-12-06T17:41:13.292Z,99997.83
2017-12-06T17:43:39.638Z,100001.09
2017-12-06T17:46:05.983Z,100004.33
2017-12-06T17:48:32.359Z,100012.83
2017-12-06T17:50:58.721Z,99999.98
2017-12-06T17:53:25.127Z,100005.79
2017-12-06T17:55:52.278Z,100009.21
2017-12-06T17:58:18.714Z,99995.33
2017-12-06T18:00:45.146Z,100011.02
2017-12-06T18:03:11.582Z,100004.05
2017-12-06T18:05:38.016Z,100007.90
2017-12-06T18:08:04.472Z,100003.14
2017-12-06T18:10:30.887Z,99992.14
2017-12-06T18:12:58.140Z,99989.34
2017-12-06T18:15:24.573Z,100002.48
2017-12-06T18:17:51.008Z,99993.56
2017-12-06T18:20:17.544Z,99990.52
2017-12-06T18:22:43.998Z,99991.08
2017-12-06T18:25:10.517Z,100001.55
2017-12-06T18:27:36.951Z,99955.80
2017-12-06T18:30:03.999Z,99996.89
2017-12-06T18:32:30.332Z,99995.31
2017-12-06T18:34:56.788Z,99995.38
2017-12-06T18:37:23.222Z,99991.03
2017-12-06T18:39:49.636Z,99993.81
2017-12-06T18:42:15.968Z,99991.85
2017-12-06T18:44:42.408Z,99993.08
2017-12-06T18:47:09.656Z,99990.44
2017-12-06T18:49:35.993Z,100000.20
2017-12-06T18:52:02.423Z,99989.78
2017-12-06T18:54:28.857Z,99981.14
2017-12-06T18:56:55.294Z,99990.55
2017-12-06T18:59:21.673Z,99989.59
2017-12-06T19:01:48.058Z,99997.75
2017-12-06T19:04:15.313Z,99998.41
2017-12-06T19:06:41.746Z,99999.23
2017-12-06T19:09:08.182Z,99997.27
2017-12-06T19:11:34.681Z,99985.34
2017-12-06T19:14:01.173Z,99992.03
2017-12-06T19:16:27.489Z,99992.33
2017-12-06T19:18:53.925Z,99986.75
2017-12-06T19:21:21.074Z,99983.84
2017-12-06T19:23:47.506Z,99970.13
2017-12-06T19:26:13.942Z,99986.11
2017-12-06T19:28:40.375Z,99980.72
2017-12-06T19:31:06.766Z,99981.09
2017-12-06T19:33:33.069Z,99980.12
2017-12-06T19:35:59.473Z,99980.06
2017-12-06T19:38:26.730Z,99978.95
2017-12-06T19:40:53.162Z,99980.88
2017-12-06T19:43:19.596Z,99985.34
2017-12-06T19:45:46.032Z,99987.25
2017-12-06T19:48:12.467Z,99956.19
2017-12-06T19:50:38.943Z,99984.53
2017-12-06T19:53:05.266Z,99979.70
2017-12-06T19:55:32.487Z,99988.13
2017-12-06T19:57:58.921Z,99979.84
2017-12-06T20:00:25.642Z,99978.67
2017-12-06T20:02:52.199Z,99973.75
2017-12-06T20:05:18.634Z,99972.19
2017-12-06T20:07:45.070Z,99975.84
2017-12-06T20:10:11.604Z,99972.05
2017-12-06T20:12:38.760Z,99962.89
2017-12-06T20:15:05.125Z,99964.09
2017-12-06T20:17:31.523Z,99970.07
2017-12-06T20:19:57.957Z,99974.91
2017-12-06T20:22:24.393Z,99970.30
2017-12-06T20:24:50.826Z,99979.83
2017-12-06T20:27:17.262Z,99969.48
2017-12-06T20:29:44.519Z,99977.43
2017-12-06T20:32:10.952Z,99973.14
2017-12-06T20:34:37.485Z,99975.84
2017-12-06T20:37:03.921Z,99984.95
2017-12-06T20:39:30.458Z,99983.50
2017-12-06T20:41:56.900Z,99994.46
2017-12-06T20:44:23.258Z,99998.43
2017-12-06T20:46:50.478Z,99994.02
2017-12-06T20:49:16.848Z,99990.77
2017-12-06T20:51:43.275Z,99989.09
2017-12-06T20:54:09.680Z,99984.55
2017-12-06T20:56:36.114Z,99986.58
2017-12-06T20:59:02.549Z,99984.80
2017-12-06T21:01:28.984Z,99980.92
2017-12-06T21:03:56.115Z,99986.00
2017-12-06T21:06:22.569Z,99984.90
2017-12-06T21:08:49.004Z,99977.87
2017-12-06T21:11:15.438Z,99965.77
2017-12-06T21:13:41.872Z,99962.18
2017-12-06T21:16:08.308Z,99957.44
2017-12-06T21:18:34.744Z,99962.56
2017-12-06T21:21:01.893Z,99967.03
2017-12-06T21:23:28.330Z,99964.38
2017-12-06T21:25:54.665Z,99967.67
2017-12-06T21:28:21.097Z,99954.36
2017-12-06T21:30:47.465Z,99972.45
2017-12-06T21:33:13.820Z,99974.05
2017-12-06T21:35:40.287Z,99977.92
2017-12-06T21:38:07.450Z,99961.63
2017-12-06T21:40:33.818Z,99973.48
2017-12-06T21:43:00.138Z,99971.92
2017-12-06T21:45:26.548Z,99971.22
2017-12-06T21:47:53.104Z,99963.64
2017-12-06T21:50:19.519Z,99963.71
2017-12-06T21:52:45.954Z,99965.50
2017-12-06T21:55:13.103Z,99959.50
2017-12-06T21:57:39.536Z,99952.36
2017-12-06T22:00:06.003Z,99948.00
2017-12-06T22:02:32.406Z,99947.39
2017-12-06T22:04:58.850Z,99952.50
2017-12-06T22:07:25.276Z,99955.17
2017-12-06T22:09:51.642Z,99952.56
2017-12-06T22:12:18.833Z,99953.67
2017-12-06T22:14:45.296Z,99959.72
2017-12-06T22:17:11.731Z,99953.70
2017-12-06T22:19:38.165Z,99950.74
2017-12-06T22:22:04.599Z,99953.23
2017-12-06T22:24:31.029Z,99948.49
2017-12-06T22:26:57.474Z,99938.46
2017-12-06T22:29:24.518Z,99938.77
2017-12-06T22:31:50.956Z,99937.86
2017-12-06T22:34:17.321Z,99937.98
2017-12-06T22:36:43.654Z,99935.66
2017-12-06T22:39:10.051Z,99944.89
2017-12-06T22:41:36.433Z,99936.52
2017-12-06T22:44:02.818Z,99914.54
2017-12-06T22:46:29.969Z,99933.35
2017-12-06T22:48:56.425Z,99936.55
2017-12-06T22:51:22.838Z,99932.65
2017-12-06T22:53:49.274Z,99934.90
2017-12-06T22:56:15.707Z,99932.06
2017-12-06T22:58:42.143Z,99938.36
2017-12-06T23:01:08.577Z,99932.87
2017-12-06T23:03:35.725Z,99928.84
2017-12-06T23:06:02.165Z,99932.42
2017-12-06T23:08:28.598Z,99929.25
2017-12-06T23:10:55.058Z,99934.36
2017-12-06T23:13:21.443Z,99930.22
2017-12-06T23:15:47.885Z,99930.06
2017-12-06T23:18:14.335Z,99925.92
2017-12-06T23:20:41.589Z,99928.52
2017-12-06T23:23:08.024Z,99936.55
2017-12-06T23:25:34.428Z,99925.80
2017-12-06T23:28:00.895Z,99932.05
2017-12-06T23:30:27.328Z,99910.41
2017-12-06T23:32:53.773Z,99937.78
2017-12-06T23:35:20.197Z,99948.42
2017-12-06T23:37:47.281Z,99939.45
2017-12-06T23:40:13.654Z,99934.14
2017-12-06T23:42:40.012Z,99914.98
2017-12-06T23:45:06.447Z,99916.98
2017-12-06T23:47:32.881Z,99918.28
2017-12-06T23:49:59.296Z,99908.27
2017-12-06T23:52:25.648Z,99908.64
2017-12-06T23:54:53.106Z,99910.11
2017-12-06T23:57:19.542Z,99904.45
2017-12-06T23:59:45.977Z,99904.34
